Aeroporto :
LOGIN :

Iscrizione | Disclaimer

   EN    FR    IT 

 










Sommario :    VFR   VFR Marginale   IFR   IFR Intensivo   IFR Molto Intensivo
Visibilità : 
Base nubi : 
>= 8 km
>= 3000ft
5 / 8 km
1000 / 3000 ft
1500m / 5 km
500 / 1000 ft
800 / 1500m
200 / 500 ft
< 800m
< 200 ft
Simboli :   Temporali  Nebbia  Neve Forte  Precipitazioni Forti  Vento > 20 kt
SIGMETs :   Varie  Temporali  Ghiacco  Turbolenza  Onda orograficha  Ceneri Vulcaniche






- Altitudine del aeroporto : 1895 ft


LSMM - Meiringen

ULTIMO METAR :
  • 171520Z AUTO 00000KT 1400NDV R10/1600U R28/1600U SN BR FEW002 SCT009 00/00 Q1003 RMK

METARs OBSOLETI :
  • 171450Z AUTO 00000KT 1100NDV R10/1200N R28/1300U SN BR FEW002 SCT006 00/M00 Q1003 RMK
  • 171420Z AUTO 00000KT 0900NDV R10/1100N R28/1100V1600D SN BR FEW002 SCT004 BKN006 00/00 Q1003 RMK
  • 171350Z AUTO 00000KT 0700NDV R10/1100N R28/1200N SN BR FEW002 SCT005 00/M00 Q1003 RMK
  • 171320Z AUTO 00000KT 0800NDV R10/0800N R28/0900N SN BR BKN005 00/M00 Q1003 RMK
  • 171250Z AUTO 00000KT 1000NDV R10/1000N R28/1100N SN BR BKN004 BKN007 00/M00 Q1003 RMK

Previsioni scadute.



MetMap, La meteo Aeronautica in un colpo d'occhio ! - Copyright ORBIFLY Dicembre 2007 - Disclaimer

ORBIFLY MET'MAP TEAM :

Programmazione e sviluppo : Alexandra Zaïnal
Concezione e sviluppo : Baudouin d'Aumeries
Co-Programmazione e sviluppo : Marc-Olivier Méhu
Supporto tecnico e logistico : Manuel Goepfert
Aiuto per la traduzione : Arnaldo La Scala

Contatto : metmap@orbifly.com




FONTI E CREDITI :

   NOAA